Time;durP1;ratioP1;P1;durP2;ratioP2;P2;SDS_P1;SDS_P2;PMS_P1;PMS_P2;Temp;Humidity;BMP_temperature;BMP_pressure;BME280_temperature;BME280_humidity;BME280_pressure;Samples;Min_cycle;Max_cycle;Signal;HPM_P1;HPM_P2
2022/05/29 00:01:03;;;;;;;7.40;2.00;;;11.60;99.90;;;;;;5053580;28;20651;-78
2022/05/29 00:03:29;;;;;;;5.38;2.13;;;11.50;99.90;;;;;;5053593;28;20175;-80
2022/05/29 00:05:55;;;;;;;4.70;1.83;;;11.60;99.90;;;;;;5054168;28;20251;-79
2022/05/29 00:08:30;;;;;;;4.97;1.33;;;11.40;99.90;;;;;;5054246;28;20730;-82
2022/05/29 00:10:59;;;;;;;4.40;1.77;;;11.20;99.90;;;;;;5053944;28;20159;-78
2022/05/29 00:13:25;;;;;;;8.57;2.05;;;11.40;99.90;;;;;;5053661;28;20214;-79
2022/05/29 00:15:51;;;;;;;5.40;1.67;;;11.50;99.90;;;;;;5053645;28;20171;-79
2022/05/29 00:18:17;;;;;;;5.22;1.90;;;11.50;99.90;;;;;;5053783;28;20577;-78
2022/05/29 00:20:48;;;;;;;7.80;1.55;;;11.50;99.90;;;;;;5053691;28;20163;-78
2022/05/29 00:23:13;;;;;;;4.07;1.35;;;11.60;99.90;;;;;;5035808;28;20181;-80
2022/05/29 00:25:39;;;;;;;13.05;3.05;;;11.70;99.90;;;;;;5053275;28;20612;-77
2022/05/29 00:28:05;;;;;;;5.65;1.30;;;11.80;99.90;;;;;;5053090;28;20206;-79
2022/05/29 00:30:31;;;;;;;6.80;1.70;;;11.90;99.90;;;;;;5053296;28;20687;-79
2022/05/29 00:32:56;;;;;;;4.28;1.77;;;12.10;99.90;;;;;;5052972;28;20211;-78
2022/05/29 00:35:22;;;;;;;6.63;1.48;;;12.00;99.90;;;;;;5053064;28;20251;-78
2022/05/29 00:37:48;;;;;;;3.92;1.48;;;11.90;99.90;;;;;;5053152;28;20199;-79
2022/05/29 00:40:36;;;;;;;5.53;1.45;;;11.90;99.90;;;;;;5053211;28;20213;-78
2022/05/29 00:43:01;;;;;;;5.10;1.52;;;12.00;99.90;;;;;;5034820;28;20171;-79
2022/05/29 00:45:31;;;;;;;6.13;1.65;;;11.90;99.90;;;;;;5053345;28;20178;-79
2022/05/29 00:47:57;;;;;;;5.53;1.45;;;12.00;99.90;;;;;;5054229;28;20663;-79
2022/05/29 00:50:23;;;;;;;10.52;1.70;;;11.90;99.90;;;;;;5052960;28;20258;-78
2022/05/29 00:52:50;;;;;;;8.80;1.70;;;12.00;99.90;;;;;;5052839;28;20607;-78
2022/05/29 00:55:23;;;;;;;4.35;2.13;;;12.00;99.90;;;;;;5052856;28;20659;-79
2022/05/29 00:57:54;;;;;;;3.45;1.88;;;12.00;99.90;;;;;;5052673;28;20199;-79
2022/05/29 01:00:25;;;;;;;4.03;1.65;;;11.90;99.90;;;;;;5053060;28;20179;-80
2022/05/29 01:02:53;;;;;;;5.88;1.70;;;11.80;99.90;;;;;;5052843;28;20532;-78
2022/05/29 01:05:22;;;;;;;8.15;1.20;;;11.80;99.90;;;;;;5052658;28;20162;-80
2022/05/29 01:07:59;;;;;;;15.32;2.25;;;11.90;99.90;;;;;;5052249;28;20214;-79
2022/05/29 01:10:37;;;;;;;5.35;1.55;;;12.00;99.90;;;;;;5051640;28;20179;-81
2022/05/29 01:13:11;;;;;;;4.80;1.58;;;11.90;99.90;;;;;;5052467;28;20203;-79
2022/05/29 01:15:56;;;;;;;8.75;1.90;;;11.90;99.90;;;;;;5052298;28;20163;-79
2022/05/29 01:18:43;;;;;;;3.67;1.25;;;12.00;99.90;;;;;;5052128;28;20341;-81
2022/05/29 01:21:36;;;;;;;3.20;1.10;;;11.90;99.90;;;;;;5052578;28;20178;-78
2022/05/29 01:24:05;;;;;;;7.10;1.67;;;11.80;99.90;;;;;;5052297;28;20301;-78
2022/05/29 01:26:42;;;;;;;2.20;1.13;;;11.70;99.90;;;;;;5052291;28;20627;-78
2022/05/29 01:29:14;;;;;;;3.08;1.52;;;11.70;99.90;;;;;;5052007;28;20193;-78
2022/05/29 01:31:56;;;;;;;9.70;1.63;;;11.80;99.90;;;;;;5052032;28;20175;-79
2022/05/29 01:34:52;;;;;;;6.57;1.77;;;11.80;99.90;;;;;;5052169;28;20721;-79
2022/05/29 01:37:32;;;;;;;7.65;1.55;;;11.70;99.90;;;;;;5052171;28;20163;-78
2022/05/29 01:40:28;;;;;;;5.07;1.40;;;11.80;99.90;;;;;;5052096;28;20158;-78
2022/05/29 01:43:03;;;;;;;8.25;1.92;;;11.80;99.90;;;;;;5028550;28;20198;-79
2022/05/29 01:45:53;;;;;;;3.30;1.85;;;11.80;99.90;;;;;;5052177;28;20205;-78
2022/05/29 01:48:27;;;;;;;3.83;1.40;;;11.70;99.90;;;;;;5052069;28;20183;-79
2022/05/29 01:50:59;;;;;;;7.25;1.20;;;11.80;99.90;;;;;;5052274;28;20167;-80
2022/05/29 01:53:39;;;;;;;5.60;2.22;;;11.90;99.90;;;;;;5051841;28;20606;-78
2022/05/29 01:56:30;;;;;;;6.80;1.65;;;11.70;99.90;;;;;;5052199;28;20178;-78
2022/05/29 01:59:29;;;;;;;1.83;1.35;;;11.70;99.90;;;;;;5051945;28;20294;-78
2022/05/29 02:02:02;;;;;;;2.03;1.23;;;11.90;99.90;;;;;;5036116;28;20209;-78
2022/05/29 02:04:31;;;;;;;3.25;1.20;;;11.90;99.90;;;;;;5052285;28;20224;-78
2022/05/29 02:09:48;;;;;;;7.30;1.63;;;11.90;99.90;;;;;;5052093;28;20233;-78
2022/05/29 02:12:18;;;;;;;5.30;1.65;;;11.90;99.90;;;;;;5034015;28;20542;-79
2022/05/29 02:14:55;;;;;;;7.25;1.23;;;12.00;99.90;;;;;;5052069;28;20203;-78
2022/05/29 02:17:27;;;;;;;1.60;0.82;;;11.60;99.90;;;;;;5052147;28;20566;-78
2022/05/29 02:20:04;;;;;;;3.58;0.93;;;11.20;99.90;;;;;;5033898;28;20517;-80
2022/05/29 02:22:33;;;;;;;5.38;1.30;;;11.10;99.90;;;;;;5055170;28;20254;-78
2022/05/29 02:25:10;;;;;;;6.75;1.08;;;11.10;99.90;;;;;;5055721;28;20163;-78
2022/05/29 02:27:54;;;;;;;2.78;1.02;;;11.00;99.90;;;;;;5037939;28;20651;-78
2022/05/29 02:30:23;;;;;;;5.18;0.95;;;11.00;99.90;;;;;;5055848;28;20568;-78
2022/05/29 02:32:52;;;;;;;1.67;0.93;;;10.90;99.90;;;;;;5055428;28;20191;-78
2022/05/29 02:35:26;;;;;;;1.65;1.08;;;10.70;99.90;;;;;;5055514;28;20198;-78
2022/05/29 02:38:13;;;;;;;6.05;1.77;;;10.90;99.90;;;;;;5055260;28;20190;-78
2022/05/29 02:41:02;;;;;;;1.00;0.90;;;10.80;99.90;;;;;;5055073;28;20166;-78
2022/05/29 02:43:53;;;;;;;7.75;1.05;;;10.60;99.90;;;;;;5055337;28;20230;-78
2022/05/29 02:46:42;;;;;;;3.08;1.00;;;10.60;99.90;;;;;;5055272;28;20258;-78
2022/05/29 02:49:30;;;;;;;11.90;1.92;;;10.80;99.90;;;;;;5054995;28;20199;-78
2022/05/29 02:52:00;;;;;;;1.25;1.08;;;10.90;99.90;;;;;;5049470;28;20194;-78
2022/05/29 02:54:29;;;;;;;2.38;1.00;;;11.10;99.90;;;;;;5055108;28;20207;-78
2022/05/29 02:56:57;;;;;;;2.28;0.90;;;11.10;99.90;;;;;;5036991;28;20232;-78
2022/05/29 02:59:25;;;;;;;6.22;1.50;;;11.20;99.90;;;;;;5054865;28;20234;-78
2022/05/29 03:02:10;;;;;;;1.00;0.90;;;11.10;99.90;;;;;;5054875;28;20167;-78
2022/05/29 03:04:44;;;;;;;0.73;0.73;;;11.10;99.90;;;;;;5054570;28;20167;-78
2022/05/29 03:08:20;;;;;;;1.83;0.90;;;11.00;99.90;;;;;;5055000;28;20178;-78
2022/05/29 03:10:58;;;;;;;7.00;1.35;;;11.10;99.90;;;;;;4936805;28;20171;-78
2022/05/29 03:13:39;;;;;;;3.45;1.33;;;11.20;99.90;;;;;;5043647;28;20238;-79
2022/05/29 03:16:17;;;;;;;1.42;0.80;;;11.10;99.90;;;;;;5036715;28;20553;-78
2022/05/29 03:19:01;;;;;;;3.92;1.10;;;11.20;99.90;;;;;;5054548;28;20210;-79
2022/05/29 03:21:55;;;;;;;1.65;1.08;;;11.50;99.90;;;;;;5054747;28;20167;-78
2022/05/29 03:24:39;;;;;;;4.32;1.45;;;11.70;99.90;;;;;;5038895;28;20171;-78
2022/05/29 03:27:40;;;;;;;6.45;1.08;;;12.00;99.90;;;;;;5036468;28;20249;-78
2022/05/29 03:30:36;;;;;;;2.47;0.95;;;12.00;99.90;;;;;;5038679;28;20533;-78
2022/05/29 03:33:06;;;;;;;1.98;1.38;;;12.10;99.90;;;;;;5034437;28;20571;-78
2022/05/29 03:35:45;;;;;;;2.60;1.00;;;12.10;99.90;;;;;;5054481;28;20155;-78
2022/05/29 03:38:11;;;;;;;1.83;1.20;;;11.90;99.90;;;;;;5054408;28;20195;-78
2022/05/29 03:40:37;;;;;;;2.47;1.13;;;11.80;99.90;;;;;;5054185;28;20532;-79
2022/05/29 03:43:02;;;;;;;2.15;0.90;;;11.60;99.90;;;;;;5054199;28;20210;-79
2022/05/29 03:45:29;;;;;;;2.03;1.20;;;11.70;99.90;;;;;;5054190;28;20620;-78
2022/05/29 03:47:55;;;;;;;1.75;1.10;;;11.50;99.90;;;;;;5053689;28;20741;-78
2022/05/29 03:50:23;;;;;;;16.35;1.73;;;11.30;99.90;;;;;;5053981;28;20165;-79
2022/05/29 03:52:49;;;;;;;2.75;1.00;;;11.30;99.90;;;;;;5053893;28;20274;-78
2022/05/29 03:55:17;;;;;;;4.90;1.02;;;11.40;99.90;;;;;;5054804;28;20572;-78
2022/05/29 03:57:42;;;;;;;8.80;0.85;;;11.50;99.90;;;;;;5053671;28;20194;-79
2022/05/29 04:00:10;;;;;;;1.48;0.90;;;11.40;99.90;;;;;;5054151;28;20178;-78
2022/05/29 04:02:36;;;;;;;3.17;0.90;;;11.40;99.90;;;;;;5054022;28;20159;-78
2022/05/29 04:05:03;;;;;;;1.35;0.60;;;11.50;99.90;;;;;;5054058;28;20163;-80
2022/05/29 04:12:58;;;;;;;2.42;0.85;;;12.00;99.90;;;;;;5053826;28;20241;-79
2022/05/29 04:15:24;;;;;;;1.58;0.90;;;12.10;99.90;;;;;;5053627;28;20198;-79
2022/05/29 04:17:50;;;;;;;2.95;0.90;;;12.20;99.90;;;;;;5053599;28;20187;-78
2022/05/29 04:20:16;;;;;;;7.57;1.00;;;12.40;99.90;;;;;;5053500;28;20182;-78
2022/05/29 04:22:42;;;;;;;1.25;0.70;;;12.80;99.90;;;;;;5053197;28;20170;-79
2022/05/29 04:25:08;;;;;;;4.60;0.80;;;12.80;99.90;;;;;;5035393;28;20687;-79
2022/05/29 04:27:34;;;;;;;3.67;1.27;;;12.90;99.90;;;;;;5053102;28;20163;-80
2022/05/29 04:29:59;;;;;;;2.05;0.95;;;13.00;99.90;;;;;;5052899;28;20204;-78
2022/05/29 04:35:09;;;;;;;3.90;0.93;;;13.00;99.90;;;;;;5053465;28;20696;-79
2022/05/29 04:37:35;;;;;;;1.10;0.98;;;13.00;99.90;;;;;;5053198;28;20195;-79
2022/05/29 04:40:00;;;;;;;3.55;1.05;;;12.90;99.90;;;;;;5053258;28;20171;-78
2022/05/29 04:42:26;;;;;;;1.02;0.73;;;13.00;99.90;;;;;;5053108;28;20293;-78
2022/05/29 04:44:52;;;;;;;4.03;1.05;;;13.00;99.90;;;;;;5052712;28;20246;-82
2022/05/29 04:47:18;;;;;;;5.85;1.10;;;13.20;99.90;;;;;;5053016;28;20160;-78
2022/05/29 04:49:45;;;;;;;7.00;0.88;;;13.40;99.90;;;;;;5052822;28;20179;-78
2022/05/29 04:52:11;;;;;;;4.78;1.00;;;13.60;99.90;;;;;;5053057;28;20202;-78
2022/05/29 04:54:38;;;;;;;2.45;1.27;;;13.60;99.90;;;;;;5053046;28;20287;-78
2022/05/29 04:57:06;;;;;;;3.22;0.80;;;13.70;99.90;;;;;;5035249;28;20167;-79
2022/05/29 04:59:32;;;;;;;2.45;0.88;;;13.90;99.90;;;;;;5052603;28;20202;-78
2022/05/29 05:01:58;;;;;;;6.25;0.70;;;14.00;99.90;;;;;;5052694;28;20239;-78
2022/05/29 05:04:24;;;;;;;4.07;0.80;;;13.80;99.90;;;;;;5052476;28;20194;-78
2022/05/29 05:06:58;;;;;;;8.98;1.00;;;13.70;99.90;;;;;;5053187;28;20257;-78
2022/05/29 05:09:27;;;;;;;2.58;1.05;;;13.50;99.90;;;;;;5052421;28;20191;-78
2022/05/29 05:11:54;;;;;;;1.08;0.80;;;13.40;99.90;;;;;;5034843;28;20185;-78
2022/05/29 05:14:21;;;;;;;1.85;0.88;;;13.40;99.90;;;;;;5052888;28;20285;-78
2022/05/29 05:16:47;;;;;;;2.75;0.80;;;13.40;99.90;;;;;;5052336;28;20201;-78
2022/05/29 05:19:14;;;;;;;3.92;1.08;;;13.40;99.90;;;;;;5052672;28;20195;-78
2022/05/29 05:21:40;;;;;;;3.30;0.90;;;13.40;99.90;;;;;;5052515;28;20616;-81
2022/05/29 05:24:06;;;;;;;3.50;0.82;;;13.30;99.90;;;;;;5034428;28;20224;-78
2022/05/29 05:26:31;;;;;;;4.15;1.30;;;13.30;99.90;;;;;;5034807;28;20599;-78
2022/05/29 05:28:57;;;;;;;4.70;1.08;;;13.20;99.90;;;;;;5034512;28;20281;-78
2022/05/29 05:31:24;;;;;;;7.30;1.65;;;13.20;99.90;;;;;;5052511;28;20510;-78
2022/05/29 05:33:50;;;;;;;7.57;1.00;;;13.00;99.90;;;;;;5052563;28;20660;-78
2022/05/29 05:36:18;;;;;;;2.40;1.15;;;13.00;99.90;;;;;;5052711;28;20249;-84
2022/05/29 05:38:44;;;;;;;2.97;1.20;;;13.00;99.90;;;;;;5034379;28;20187;-78
2022/05/29 05:41:11;;;;;;;2.33;1.13;;;13.00;99.90;;;;;;5052450;28;20171;-79
2022/05/29 05:43:36;;;;;;;1.83;1.10;;;13.10;99.90;;;;;;5034688;28;20176;-80
2022/05/29 05:46:06;;;;;;;8.35;1.27;;;13.20;99.90;;;;;;5052281;28;20225;-79
2022/05/29 05:48:33;;;;;;;7.63;1.60;;;13.30;99.90;;;;;;5051946;28;20532;-79
2022/05/29 05:51:00;;;;;;;3.65;1.23;;;13.20;99.90;;;;;;5052141;28;20321;-78
2022/05/29 05:53:26;;;;;;;5.15;1.33;;;13.40;99.90;;;;;;5051812;28;20249;-80
2022/05/29 05:55:52;;;;;;;1.25;0.88;;;13.40;99.90;;;;;;5052779;28;20579;-78
2022/05/29 05:58:18;;;;;;;5.38;1.25;;;13.20;99.90;;;;;;5055965;28;20195;-78
2022/05/29 06:00:45;;;;;;;2.40;1.25;;;13.00;99.90;;;;;;5056257;28;20182;-82
2022/05/29 06:03:11;;;;;;;4.45;1.45;;;13.00;99.90;;;;;;5038090;28;20853;-78
2022/05/29 06:05:36;;;;;;;1.10;1.08;;;13.20;99.90;;;;;;5056025;28;20189;-80
2022/05/29 06:08:02;;;;;;;5.25;1.33;;;13.20;99.90;;;;;;5055695;28;20231;-78
2022/05/29 06:10:28;;;;;;;1.77;1.00;;;13.20;99.90;;;;;;5055625;28;20237;-79
2022/05/29 06:12:54;;;;;;;6.78;1.00;;;13.20;99.90;;;;;;5038092;28;20213;-78
2022/05/29 06:15:19;;;;;;;4.55;1.33;;;12.90;99.90;;;;;;5056019;28;20167;-78
2022/05/29 06:17:45;;;;;;;7.25;1.45;;;12.90;99.90;;;;;;5055746;28;20527;-78
2022/05/29 06:20:12;;;;;;;3.15;1.13;;;12.90;99.90;;;;;;5055634;28;20171;-78
2022/05/29 06:22:39;;;;;;;4.55;1.30;;;13.10;99.90;;;;;;5055648;28;20167;-76
2022/05/29 06:25:07;;;;;;;4.57;1.13;;;13.20;99.90;;;;;;5037667;28;20237;-78
2022/05/29 06:27:41;;;;;;;4.05;1.52;;;13.20;99.90;;;;;;5055403;28;20156;-79
2022/05/29 06:30:11;;;;;;;2.45;1.10;;;13.30;99.90;;;;;;5055800;28;20179;-78
2022/05/29 06:32:37;;;;;;;3.95;1.58;;;13.50;99.90;;;;;;5055305;28;20194;-78
2022/05/29 06:35:04;;;;;;;2.95;1.40;;;13.40;99.90;;;;;;5037067;28;20179;-78
2022/05/29 06:37:30;;;;;;;16.98;1.30;;;13.50;99.90;;;;;;5037408;28;20249;-79
2022/05/29 06:39:56;;;;;;;7.53;1.58;;;13.70;99.90;;;;;;5055451;28;20591;-79
2022/05/29 06:42:21;;;;;;;4.25;1.20;;;13.70;99.90;;;;;;5055428;28;20172;-80
2022/05/29 06:44:47;;;;;;;6.50;1.50;;;13.80;99.90;;;;;;5055376;28;20159;-78
2022/05/29 06:47:15;;;;;;;6.78;1.27;;;13.80;99.90;;;;;;5055362;28;20631;-77
2022/05/29 06:49:41;;;;;;;5.05;1.30;;;13.70;99.90;;;;;;5055148;28;20189;-78
2022/05/29 06:52:09;;;;;;;4.97;1.55;;;14.00;99.90;;;;;;5055155;28;20257;-77
2022/05/29 06:54:35;;;;;;;2.78;1.10;;;14.40;99.90;;;;;;5054628;28;20206;-78
2022/05/29 06:57:01;;;;;;;2.92;1.42;;;14.70;99.90;;;;;;5055416;28;20167;-78
2022/05/29 06:59:26;;;;;;;5.30;1.42;;;15.10;99.90;;;;;;5054655;28;20280;-79
2022/05/29 07:07:22;;;;;;;4.97;1.08;;;16.40;99.90;;;;;;5053749;28;20546;-79
2022/05/29 07:09:48;;;;;;;9.88;1.45;;;16.90;99.90;;;;;;5054711;28;20164;-79
2022/05/29 07:12:27;;;;;;;6.53;0.80;;;17.00;99.90;;;;;;5055411;28;20220;-83
2022/05/29 07:15:06;;;;;;;3.17;1.27;;;17.00;99.90;;;;;;5036986;28;20206;-80
2022/05/29 07:17:32;;;;;;;7.47;0.90;;;16.10;99.90;;;;;;5054375;28;20167;-80
2022/05/29 07:19:58;;;;;;;6.38;1.40;;;15.60;99.90;;;;;;5036715;28;20198;-80
2022/05/29 07:22:26;;;;;;;8.10;1.20;;;14.80;99.90;;;;;;5036926;28;20644;-79
2022/05/29 07:24:51;;;;;;;2.45;0.88;;;14.60;99.90;;;;;;5054563;28;20175;-86
2022/05/29 07:27:17;;;;;;;1.88;0.82;;;14.90;99.90;;;;;;5054450;28;20175;-79
2022/05/29 07:29:42;;;;;;;3.50;0.88;;;14.70;99.90;;;;;;5036394;28;20175;-79
2022/05/29 07:32:09;;;;;;;8.50;1.23;;;14.40;99.90;;;;;;5054632;28;20168;-79
2022/05/29 07:34:35;;;;;;;1.88;1.23;;;14.40;99.90;;;;;;5054905;28;20210;-79
2022/05/29 07:37:05;;;;;;;13.55;1.50;;;14.80;99.90;;;;;;5036590;28;20164;-81
2022/05/29 07:39:35;;;;;;;4.85;1.33;;;15.00;99.90;;;;;;5054126;28;20264;-81
2022/05/29 07:44:44;;;;;;;5.80;1.20;;;15.50;99.90;;;;;;5054668;28;20551;-79
2022/05/29 07:47:10;;;;;;;5.28;1.00;;;15.70;99.90;;;;;;5054296;28;20167;-82
2022/05/29 07:49:38;;;;;;;2.10;0.98;;;15.40;99.90;;;;;;5053896;28;20191;-82
2022/05/29 07:52:04;;;;;;;6.72;1.00;;;15.30;99.90;;;;;;5053662;28;20254;-81
2022/05/29 07:54:30;;;;;;;4.97;1.33;;;15.40;99.90;;;;;;5053581;28;20786;-79
2022/05/29 07:56:56;;;;;;;3.30;1.52;;;15.40;99.90;;;;;;5053881;28;20175;-77
2022/05/29 07:59:22;;;;;;;6.68;1.83;;;15.50;99.90;;;;;;5053892;28;20203;-80
2022/05/29 08:01:48;;;;;;;2.55;1.52;;;15.60;99.90;;;;;;5054095;28;20225;-80
2022/05/29 08:04:14;;;;;;;3.20;1.23;;;15.40;99.90;;;;;;5053705;28;20178;-79
2022/05/29 08:06:41;;;;;;;3.38;1.20;;;15.30;99.90;;;;;;5035938;28;20639;-80
2022/05/29 08:09:06;;;;;;;2.08;1.17;;;15.30;99.90;;;;;;5053581;28;20194;-80
2022/05/29 08:11:33;;;;;;;6.13;1.45;;;15.90;99.90;;;;;;5053626;28;20175;-81
2022/05/29 08:14:01;;;;;;;2.33;1.20;;;16.40;99.90;;;;;;5035693;28;20203;-82
2022/05/29 08:16:27;;;;;;;4.97;1.02;;;15.90;99.90;;;;;;5053577;28;20191;-78
2022/05/29 08:18:53;;;;;;;2.53;1.10;;;15.80;99.90;;;;;;5053255;28;20191;-77
2022/05/29 08:21:19;;;;;;;1.77;1.10;;;15.70;99.90;;;;;;5053350;28;20233;-79
2022/05/29 08:30:37;;;;;;;5.78;1.27;;;16.00;99.90;;;;;;5053267;28;20160;-82
2022/05/29 08:32:00;;;;;;;2.03;1.30;;;15.20;99.90;;;;;;5053615;28;20189;-80
2022/05/29 08:34:26;;;;;;;2.40;0.90;;;15.20;99.90;;;;;;5053218;28;20563;-81
2022/05/29 08:36:53;;;;;;;4.85;1.10;;;15.40;99.90;;;;;;5053083;28;20163;-81
2022/05/29 08:39:18;;;;;;;1.27;1.17;;;15.10;99.90;;;;;;5053089;28;20187;-83
2022/05/29 08:41:48;;;;;;;1.23;1.00;;;15.40;99.90;;;;;;5052963;28;20182;-80
2022/05/29 08:44:34;;;;;;;1.77;0.80;;;15.70;99.90;;;;;;5053279;28;20170;-81
2022/05/29 08:47:02;;;;;;;1.98;0.82;;;16.20;99.90;;;;;;5053252;28;20183;-78
2022/05/29 08:49:32;;;;;;;6.03;1.08;;;16.40;99.90;;;;;;5053070;28;20183;-78
2022/05/29 08:52:05;;;;;;;1.75;0.70;;;16.80;99.90;;;;;;5052754;28;20203;-78
2022/05/29 08:54:44;;;;;;;1.17;1.08;;;16.80;99.90;;;;;;5052693;28;20256;-80
2022/05/29 08:57:47;;;;;;;2.10;0.93;;;16.40;99.90;;;;;;5052709;28;20167;-81
2022/05/29 09:00:23;;;;;;;1.33;0.90;;;16.00;99.90;;;;;;5052510;28;20236;-80
2022/05/29 09:03:19;;;;;;;1.70;0.90;;;15.90;99.90;;;;;;5052280;28;20167;-80
2022/05/29 09:05:52;;;;;;;4.00;0.80;;;16.10;99.90;;;;;;5052316;28;20182;-80
2022/05/29 09:08:23;;;;;;;2.95;0.70;;;15.30;99.90;;;;;;5052571;28;20334;-80
2022/05/29 09:11:05;;;;;;;1.50;0.88;;;15.10;99.90;;;;;;5052793;28;20174;-85
2022/05/29 09:13:45;;;;;;;0.95;0.60;;;15.50;99.90;;;;;;5050764;28;20556;-81
2022/05/29 09:16:15;;;;;;;1.48;0.75;;;15.80;99.90;;;;;;5052456;28;20178;-79
2022/05/29 09:18:47;;;;;;;0.57;0.57;;;16.10;99.90;;;;;;5051282;28;20551;-83
2022/05/29 09:21:22;;;;;;;3.47;0.90;;;16.40;99.90;;;;;;5043446;28;20250;-82
2022/05/29 09:24:33;;;;;;;1.50;1.00;;;16.90;99.90;;;;;;5044999;28;20166;-86
2022/05/29 09:26:59;;;;;;;0.90;0.65;;;17.40;99.90;;;;;;5030924;28;20187;-85
2022/05/29 09:29:25;;;;;;;0.73;0.52;;;17.60;99.90;;;;;;5052885;28;20274;-85
2022/05/29 09:31:50;;;;;;;1.48;0.80;;;18.00;99.90;;;;;;5054434;28;20181;-82
2022/05/29 09:34:16;;;;;;;5.15;0.80;;;18.20;99.90;;;;;;5068921;28;20198;-82
2022/05/29 09:36:52;;;;;;;1.25;0.75;;;18.30;99.90;;;;;;5071646;28;20688;-80
2022/05/29 09:39:44;;;;;;;3.03;1.05;;;18.00;99.90;;;;;;5053711;28;20186;-82
2022/05/29 09:42:51;;;;;;;5.70;1.00;;;17.20;99.90;;;;;;5048461;28;20214;-82
2022/05/29 09:45:32;;;;;;;1.00;0.70;;;17.30;99.90;;;;;;5012626;28;20179;-77
2022/05/29 09:50:48;;;;;;;1.40;1.08;;;17.10;99.90;;;;;;5051890;28;20178;-78
2022/05/29 09:53:34;;;;;;;1.05;0.57;;;17.30;99.90;;;;;;5052116;28;20201;-82
2022/05/29 09:56:08;;;;;;;1.13;0.77;;;16.80;99.90;;;;;;5052564;28;20182;-85
2022/05/29 09:58:50;;;;;;;0.85;0.50;;;16.80;99.90;;;;;;5052552;28;20676;-87
2022/05/29 10:01:34;;;;;;;2.15;0.60;;;16.90;99.90;;;;;;5055875;22;20212;-77
2022/05/29 10:04:03;;;;;;;4.97;0.88;;;16.60;99.90;;;;;;4993553;28;20176;-78
2022/05/29 10:06:32;;;;;;;1.55;0.77;;;16.50;99.90;;;;;;5011914;28;20167;-78
2022/05/29 10:09:22;;;;;;;4.28;0.80;;;16.80;99.90;;;;;;4994934;28;20279;-78
2022/05/29 10:11:58;;;;;;;1.85;0.90;;;16.30;99.90;;;;;;5012261;28;20173;-77
2022/05/29 10:14:24;;;;;;;3.30;0.73;;;15.10;99.90;;;;;;4994529;28;20208;-78
2022/05/29 10:16:55;;;;;;;0.43;0.43;;;14.60;99.90;;;;;;5012276;28;20630;-78
2022/05/29 10:19:35;;;;;;;1.23;0.75;;;14.10;99.90;;;;;;4994991;28;20544;-78
2022/05/29 10:22:02;;;;;;;1.92;0.55;;;13.60;99.90;;;;;;5012589;28;20164;-79
2022/05/29 10:24:37;;;;;;;0.40;0.40;;;13.50;99.90;;;;;;5012078;28;20222;-78
2022/05/29 10:27:06;;;;;;;0.70;0.40;;;12.70;99.90;;;;;;5012492;28;20168;-89
2022/05/29 10:29:37;;;;;;;1.40;0.60;;;12.30;99.90;;;;;;5012043;28;20586;-78
2022/05/29 10:32:09;;;;;;;0.30;0.30;;;12.40;99.90;;;;;;5010757;28;20250;-78
2022/05/29 10:34:39;;;;;;;1.73;0.50;;;12.50;99.90;;;;;;5011226;28;20267;-77
2022/05/29 10:37:44;;;;;;;1.10;0.63;;;12.70;99.90;;;;;;5012813;28;20171;-77
2022/05/29 10:40:31;;;;;;;2.00;0.47;;;12.90;99.90;;;;;;4953464;29;20181;-78
2022/05/29 10:43:04;;;;;;;0.57;0.57;;;12.80;99.90;;;;;;4958038;28;20174;-81
2022/05/29 10:45:34;;;;;;;1.02;0.75;;;13.20;99.90;;;;;;4981399;28;20185;-74
2022/05/29 10:48:03;;;;;;;1.05;0.60;;;13.60;99.90;;;;;;5019487;28;20192;-78
2022/05/29 10:51:23;;;;;;;5.90;1.00;;;14.00;99.90;;;;;;4997433;28;20175;-77
2022/05/29 10:54:03;;;;;;;0.35;0.32;;;14.60;99.90;;;;;;4954091;29;20765;-78
2022/05/29 10:56:44;;;;;;;2.70;1.05;;;14.90;99.90;;;;;;5009149;28;20180;-78
2022/05/29 10:59:16;;;;;;;0.75;0.60;;;15.30;99.90;;;;;;4997972;28;20568;-78
2022/05/29 11:05:11;;;;;;;0.82;0.50;;;15.40;99.90;;;;;;5015375;28;20545;-77
2022/05/29 11:07:55;;;;;;;1.35;0.60;;;15.60;99.90;;;;;;4992831;28;20242;-77
2022/05/29 11:10:47;;;;;;;0.30;0.30;;;15.60;99.90;;;;;;5015232;28;20671;-77
2022/05/29 11:13:37;;;;;;;1.15;0.77;;;15.10;99.90;;;;;;5014921;28;20565;-78
2022/05/29 11:16:14;;;;;;;3.35;0.90;;;15.40;99.90;;;;;;5015272;28;20181;-77
2022/05/29 11:19:11;;;;;;;1.05;0.40;;;15.80;99.90;;;;;;5015024;28;20254;-77
2022/05/29 11:21:56;;;;;;;3.53;0.70;;;16.00;99.90;;;;;;5014791;28;20173;-77
2022/05/29 11:24:39;;;;;;;0.90;0.70;;;15.90;99.90;;;;;;5015043;28;20214;-77
2022/05/29 11:27:44;;;;;;;3.65;0.63;;;16.20;99.90;;;;;;5015033;28;20172;-77
2022/05/29 11:30:15;;;;;;;0.75;0.60;;;16.50;99.90;;;;;;5014407;28;20639;-77
2022/05/29 11:32:59;;;;;;;1.15;0.70;;;16.50;99.90;;;;;;5014775;28;20169;-77
2022/05/29 11:35:43;;;;;;;2.60;0.95;;;16.50;99.90;;;;;;5014775;28;20307;-77
2022/05/29 11:38:28;;;;;;;1.08;0.90;;;16.50;99.90;;;;;;5014542;28;20212;-78
2022/05/29 11:41:05;;;;;;;1.33;0.60;;;16.40;99.90;;;;;;5003920;28;20176;-77
2022/05/29 11:43:41;;;;;;;1.52;0.80;;;16.20;99.90;;;;;;5014838;28;20280;-80
2022/05/29 11:51:56;;;;;;;2.00;1.25;;;16.70;99.90;;;;;;5014778;28;20196;-79
2022/05/29 11:54:44;;;;;;;2.50;0.93;;;16.70;99.90;;;;;;5013681;28;20237;-76
2022/05/29 11:57:19;;;;;;;1.85;0.95;;;16.30;99.90;;;;;;5014918;28;20224;-80
2022/05/29 12:00:08;;;;;;;5.38;0.93;;;16.00;99.90;;;;;;4996802;28;20648;-81
2022/05/29 12:02:58;;;;;;;0.70;0.65;;;15.50;99.90;;;;;;4996613;28;20242;-82
2022/05/29 12:05:41;;;;;;;0.60;0.60;;;14.70;99.90;;;;;;5014462;28;20502;-81
2022/05/29 12:08:13;;;;;;;2.15;0.75;;;14.30;99.90;;;;;;5014084;28;20262;-81
2022/05/29 12:11:27;;;;;;;3.33;0.82;;;14.40;99.90;;;;;;4996895;28;20169;-81
2022/05/29 12:14:30;;;;;;;0.50;0.50;;;14.20;99.90;;;;;;5014088;28;20208;-80
2022/05/29 12:17:02;;;;;;;3.80;0.60;;;14.10;99.90;;;;;;5014351;28;20172;-80
2022/05/29 12:20:04;;;;;;;0.55;0.55;;;13.90;99.90;;;;;;4996158;28;20188;-79
2022/05/29 12:22:44;;;;;;;1.05;0.88;;;13.70;99.90;;;;;;4963877;28;20275;-81
2022/05/29 12:25:24;;;;;;;0.57;0.57;;;13.70;99.90;;;;;;5013905;28;20164;-81
2022/05/29 12:27:53;;;;;;;1.08;0.77;;;13.90;99.90;;;;;;5013547;28;20657;-78
2022/05/29 12:30:32;;;;;;;3.85;1.10;;;13.90;99.90;;;;;;5013753;28;20187;-82
2022/05/29 12:33:09;;;;;;;3.30;0.80;;;13.80;99.90;;;;;;4995970;28;20645;-81
2022/05/29 12:35:41;;;;;;;1.15;0.70;;;14.10;99.90;;;;;;5014502;28;20172;-82
2022/05/29 12:38:25;;;;;;;0.65;0.57;;;14.30;99.90;;;;;;5013892;28;20195;-81
2022/05/29 12:41:11;;;;;;;1.35;0.98;;;14.70;99.90;;;;;;4996009;28;20176;-81
2022/05/29 12:43:40;;;;;;;2.97;0.85;;;14.90;99.90;;;;;;5013449;28;20173;-82
2022/05/29 12:46:37;;;;;;;1.33;0.82;;;15.20;99.90;;;;;;4996975;28;20153;-81
2022/05/29 12:49:03;;;;;;;2.63;0.90;;;15.50;99.90;;;;;;5013184;28;20203;-80
2022/05/29 12:51:31;;;;;;;1.48;0.90;;;16.10;99.90;;;;;;5013618;28;20512;-80
2022/05/29 12:54:21;;;;;;;1.15;1.05;;;16.60;99.90;;;;;;5013423;28;20677;-80
2022/05/29 12:56:49;;;;;;;1.60;0.77;;;16.90;99.90;;;;;;4988177;28;20180;-81
2022/05/29 12:59:18;;;;;;;1.92;1.00;;;17.30;99.90;;;;;;5014973;28;20184;-80
2022/05/29 13:02:02;;;;;;;1.45;0.60;;;17.70;99.90;;;;;;4995880;28;20187;-81
2022/05/29 13:04:49;;;;;;;1.27;0.50;;;17.40;99.90;;;;;;5013139;28;20215;-80
2022/05/29 13:07:24;;;;;;;1.70;0.85;;;17.30;99.90;;;;;;5013324;28;20232;-80
2022/05/29 13:10:13;;;;;;;1.20;0.70;;;17.10;99.90;;;;;;4995955;28;20250;-80
2022/05/29 13:12:49;;;;;;;1.65;1.00;;;17.20;99.90;;;;;;5013349;28;20559;-80
2022/05/29 13:15:32;;;;;;;2.47;0.60;;;17.20;99.90;;;;;;5013160;28;20234;-80
2022/05/29 13:18:09;;;;;;;0.82;0.57;;;17.20;99.90;;;;;;5012468;28;20203;-80
2022/05/29 13:21:12;;;;;;;1.85;1.13;;;17.10;99.90;;;;;;4995496;28;20660;-81
2022/05/29 13:23:53;;;;;;;4.80;0.82;;;17.40;99.90;;;;;;5016430;28;20165;-81
2022/05/29 13:26:28;;;;;;;2.60;0.82;;;17.60;99.90;;;;;;4995212;28;20172;-81
2022/05/29 13:29:01;;;;;;;1.25;0.57;;;16.90;99.90;;;;;;4995580;28;20656;-80
2022/05/29 13:31:33;;;;;;;2.67;1.00;;;16.60;99.90;;;;;;5012821;28;20169;-80
2022/05/29 13:34:26;;;;;;;2.10;1.20;;;16.70;99.90;;;;;;5012449;28;20200;-80
2022/05/29 13:36:53;;;;;;;3.33;1.00;;;16.40;99.90;;;;;;4995081;28;20540;-82
2022/05/29 13:39:22;;;;;;;1.95;0.70;;;15.70;99.90;;;;;;5012679;28;20176;-80
2022/05/29 13:42:04;;;;;;;4.63;0.90;;;15.50;99.90;;;;;;5012807;28;20645;-80
2022/05/29 13:44:39;;;;;;;0.55;0.55;;;15.30;99.90;;;;;;4995209;28;20176;-80
2022/05/29 13:47:24;;;;;;;1.98;0.85;;;14.90;99.90;;;;;;4995217;28;20168;-80
2022/05/29 13:50:04;;;;;;;0.80;0.80;;;14.40;99.90;;;;;;4994889;28;20834;-80
2022/05/29 13:52:51;;;;;;;4.55;1.20;;;14.30;99.90;;;;;;4994717;28;20624;-81
2022/05/29 13:55:24;;;;;;;1.75;1.17;;;14.40;99.90;;;;;;5012878;28;20184;-80
2022/05/29 14:03:58;;;;;;;4.32;1.10;;;15.30;99.90;;;;;;5012876;28;20271;-81